Airfield :







YOU CAN JOIN US ON...

 
LOGIN :

Register | Disclaimer

   EN    FR    IT 

 









Legend :    VFR   Marginal VFR   IFR   Intensive IFR   Very Intensive IFR
Visi :
Ceiling :
>= 8 km
>= 3000ft
5 to 8 km
1000 to 3000 ft
1500m to 5 km
500 to 1000 ft
800 to 1500m
200 to 500 ft
< 800m
< 200 ft
Symbols :   Thunderstorms  Fog  Heavy snow  Heavy precipitations  Wind > 20 kt






- Airport Elevation : 285 ft
- IATA code : ALB


KALB - Albany International

CURRENT METAR :
  • 251751Z 04009KT 10SM SCT200 SCT250 07/M01 A3028 RMK AO2 SLP257 T00721011 10072 20000 58009

EXPIRED METARs :
  • 251651Z 34009G14KT 10SM FEW035 SCT200 BKN250 07/M01 A3029 RMK AO2 SLP261 T00671011
  • 251551Z 02009KT 10SM FEW035 SCT200 BKN250 06/M02 A3031 RMK AO2 SLP266 T00561017

TAF KALB
Valid from the 25 at 18:00 until the 26 at 18:00 UTC


251722Z 2518/2618 36008KT P6SM FEW035 SCT250
FM260100 01004KT P6SM BKN120
FM260400 VRB03KT P6SM -RA SCT025 OVC070
FM261000 15007KT 5SM -RA BR BKN012 OVC025
PROB30 2612/2616 2SM RA BR BKN008 OVC012
KZBW FIR / North America



MET'MAP, your aeronautical weather chart ! - Copyright ORBIFLY December 2007 - Disclaimer

ORBIFLY MET'MAP TEAM :

Programming & Development : Alexandra Zaïnal
Concept & original design : Baudouin d'Aumeries
Assistance for programming : Marc-Olivier Méhu
Technical & hardware support : Manuel Goepfert

Contact : metmap@orbifly.com




SOURCES & CREDITS :

   NOAA